sensor_id;sensor_type;location;lat;lon;timestamp;temperature;humidity
26278;DHT22;14000;52.056;8.510;2022-10-28T00:00:54;15.90;99.90
26278;DHT22;14000;52.056;8.510;2022-10-28T00:03:21;15.80;99.90
26278;DHT22;14000;52.056;8.510;2022-10-28T00:05:47;15.60;99.90
26278;DHT22;14000;52.056;8.510;2022-10-28T00:08:13;15.60;99.90
26278;DHT22;14000;52.056;8.510;2022-10-28T00:10:38;15.60;99.90
26278;DHT22;14000;52.056;8.510;2022-10-28T00:13:04;15.60;99.90
26278;DHT22;14000;52.056;8.510;2022-10-28T00:15:32;15.50;99.90
26278;DHT22;14000;52.056;8.510;2022-10-28T00:17:58;15.40;99.90
26278;DHT22;14000;52.056;8.510;2022-10-28T00:20:24;15.40;99.90
26278;DHT22;14000;52.056;8.510;2022-10-28T00:22:49;15.40;99.90
26278;DHT22;14000;52.056;8.510;2022-10-28T00:25:15;15.30;99.90
26278;DHT22;14000;52.056;8.510;2022-10-28T00:27:40;15.30;99.90
26278;DHT22;14000;52.056;8.510;2022-10-28T00:30:08;15.40;99.90
26278;DHT22;14000;52.056;8.510;2022-10-28T00:32:34;15.30;99.90
26278;DHT22;14000;52.056;8.510;2022-10-28T00:35:00;15.40;99.90
26278;DHT22;14000;52.056;8.510;2022-10-28T00:37:25;15.30;99.90
26278;DHT22;14000;52.056;8.510;2022-10-28T00:39:51;15.20;99.90
26278;DHT22;14000;52.056;8.510;2022-10-28T00:42:19;15.10;99.90
26278;DHT22;14000;52.056;8.510;2022-10-28T00:44:52;14.90;99.90
26278;DHT22;14000;52.056;8.510;2022-10-28T00:47:43;14.90;99.90
26278;DHT22;14000;52.056;8.510;2022-10-28T00:53:07;14.80;99.90
26278;DHT22;14000;52.056;8.510;2022-10-28T00:55:35;14.90;99.90
26278;DHT22;14000;52.056;8.510;2022-10-28T00:58:01;14.80;99.90
26278;DHT22;14000;52.056;8.510;2022-10-28T01:00:28;14.90;99.90
26278;DHT22;14000;52.056;8.510;2022-10-28T01:02:54;14.90;99.90
26278;DHT22;14000;52.056;8.510;2022-10-28T01:05:23;14.80;99.90
26278;DHT22;14000;52.056;8.510;2022-10-28T01:07:51;14.90;99.90
26278;DHT22;14000;52.056;8.510;2022-10-28T01:10:17;14.90;99.90
26278;DHT22;14000;52.056;8.510;2022-10-28T01:12:58;14.90;99.90
26278;DHT22;14000;52.056;8.510;2022-10-28T01:18:28;14.90;99.90
26278;DHT22;14000;52.056;8.510;2022-10-28T01:23:58;14.80;99.90
26278;DHT22;14000;52.056;8.510;2022-10-28T01:31:53;14.90;99.90
26278;DHT22;14000;52.056;8.510;2022-10-28T01:37:00;14.80;99.90
26278;DHT22;14000;52.056;8.510;2022-10-28T01:39:49;14.80;99.90
26278;DHT22;14000;52.056;8.510;2022-10-28T01:42:41;14.80;99.90
26278;DHT22;14000;52.056;8.510;2022-10-28T01:45:26;14.80;99.90
26278;DHT22;14000;52.056;8.510;2022-10-28T01:48:21;14.80;99.90
26278;DHT22;14000;52.056;8.510;2022-10-28T01:51:02;14.80;99.90
26278;DHT22;14000;52.056;8.510;2022-10-28T01:53:32;14.70;99.90
26278;DHT22;14000;52.056;8.510;2022-10-28T01:56:03;14.70;99.90
26278;DHT22;14000;52.056;8.510;2022-10-28T01:58:32;14.70;99.90
26278;DHT22;14000;52.056;8.510;2022-10-28T02:01:00;14.70;99.90
26278;DHT22;14000;52.056;8.510;2022-10-28T02:03:29;14.60;99.90
26278;DHT22;14000;52.056;8.510;2022-10-28T02:05:55;14.50;99.90
26278;DHT22;14000;52.056;8.510;2022-10-28T02:14:21;14.50;99.90
26278;DHT22;14000;52.056;8.510;2022-10-28T02:17:30;14.50;99.90
26278;DHT22;14000;52.056;8.510;2022-10-28T02:23:15;14.50;99.90
26278;DHT22;14000;52.056;8.510;2022-10-28T02:28:43;14.50;99.90
26278;DHT22;14000;52.056;8.510;2022-10-28T02:31:23;14.50;99.90
26278;DHT22;14000;52.056;8.510;2022-10-28T02:33:53;14.50;99.90
26278;DHT22;14000;52.056;8.510;2022-10-28T02:36:21;14.50;99.90
26278;DHT22;14000;52.056;8.510;2022-10-28T02:38:55;14.40;99.90
26278;DHT22;14000;52.056;8.510;2022-10-28T02:41:46;14.40;99.90
26278;DHT22;14000;52.056;8.510;2022-10-28T02:44:17;14.40;99.90
26278;DHT22;14000;52.056;8.510;2022-10-28T02:46:47;14.40;99.90
26278;DHT22;14000;52.056;8.510;2022-10-28T02:49:14;14.40;99.90
26278;DHT22;14000;52.056;8.510;2022-10-28T02:51:45;14.30;99.90
26278;DHT22;14000;52.056;8.510;2022-10-28T02:54:15;14.30;99.90
26278;DHT22;14000;52.056;8.510;2022-10-28T02:56:50;14.20;99.90
26278;DHT22;14000;52.056;8.510;2022-10-28T02:59:17;14.30;99.90
26278;DHT22;14000;52.056;8.510;2022-10-28T03:01:43;14.20;99.90
26278;DHT22;14000;52.056;8.510;2022-10-28T03:04:08;14.20;99.90
26278;DHT22;14000;52.056;8.510;2022-10-28T03:06:34;14.20;99.90
26278;DHT22;14000;52.056;8.510;2022-10-28T03:09:00;14.20;99.90
26278;DHT22;14000;52.056;8.510;2022-10-28T03:11:25;14.20;99.90
26278;DHT22;14000;52.056;8.510;2022-10-28T03:13:51;14.20;99.90
26278;DHT22;14000;52.056;8.510;2022-10-28T03:16:16;14.10;99.90
26278;DHT22;14000;52.056;8.510;2022-10-28T03:18:42;14.10;99.90
26278;DHT22;14000;52.056;8.510;2022-10-28T03:21:08;14.00;99.90
26278;DHT22;14000;52.056;8.510;2022-10-28T03:23:33;14.10;99.90
26278;DHT22;14000;52.056;8.510;2022-10-28T03:25:59;14.00;99.90
26278;DHT22;14000;52.056;8.510;2022-10-28T03:28:24;14.00;99.90
26278;DHT22;14000;52.056;8.510;2022-10-28T03:30:50;14.00;99.90
26278;DHT22;14000;52.056;8.510;2022-10-28T03:33:15;13.90;99.90
26278;DHT22;14000;52.056;8.510;2022-10-28T03:35:41;13.90;99.90
26278;DHT22;14000;52.056;8.510;2022-10-28T03:38:07;13.90;99.90
26278;DHT22;14000;52.056;8.510;2022-10-28T03:40:32;13.80;99.90
26278;DHT22;14000;52.056;8.510;2022-10-28T03:42:58;13.90;99.90
26278;DHT22;14000;52.056;8.510;2022-10-28T03:45:24;13.80;99.90
26278;DHT22;14000;52.056;8.510;2022-10-28T03:47:50;13.90;99.90
26278;DHT22;14000;52.056;8.510;2022-10-28T03:50:15;13.80;99.90
26278;DHT22;14000;52.056;8.510;2022-10-28T03:52:44;13.80;99.90
26278;DHT22;14000;52.056;8.510;2022-10-28T03:55:10;13.70;99.90
26278;DHT22;14000;52.056;8.510;2022-10-28T03:57:36;13.80;99.90
26278;DHT22;14000;52.056;8.510;2022-10-28T04:00:02;13.80;99.90
26278;DHT22;14000;52.056;8.510;2022-10-28T04:02:28;13.90;99.90
26278;DHT22;14000;52.056;8.510;2022-10-28T04:04:53;13.90;99.90
26278;DHT22;14000;52.056;8.510;2022-10-28T04:07:19;13.90;99.90
26278;DHT22;14000;52.056;8.510;2022-10-28T04:09:45;13.80;99.90
26278;DHT22;14000;52.056;8.510;2022-10-28T04:12:14;13.80;99.90
26278;DHT22;14000;52.056;8.510;2022-10-28T04:14:39;13.90;99.90
26278;DHT22;14000;52.056;8.510;2022-10-28T04:17:05;13.80;99.90
26278;DHT22;14000;52.056;8.510;2022-10-28T04:19:30;13.90;99.90
26278;DHT22;14000;52.056;8.510;2022-10-28T04:21:56;13.80;99.90
26278;DHT22;14000;52.056;8.510;2022-10-28T04:24:21;13.90;99.90
26278;DHT22;14000;52.056;8.510;2022-10-28T04:26:47;13.90;99.90
26278;DHT22;14000;52.056;8.510;2022-10-28T04:29:13;13.80;99.90
26278;DHT22;14000;52.056;8.510;2022-10-28T04:31:38;13.80;99.90
26278;DHT22;14000;52.056;8.510;2022-10-28T04:34:04;13.80;99.90
26278;DHT22;14000;52.056;8.510;2022-10-28T04:36:29;13.80;99.90
26278;DHT22;14000;52.056;8.510;2022-10-28T04:38:55;13.80;99.90
26278;DHT22;14000;52.056;8.510;2022-10-28T04:41:20;13.80;99.90
26278;DHT22;14000;52.056;8.510;2022-10-28T04:43:46;13.80;99.90
26278;DHT22;14000;52.056;8.510;2022-10-28T04:46:11;13.80;99.90
26278;DHT22;14000;52.056;8.510;2022-10-28T04:48:37;13.80;99.90
26278;DHT22;14000;52.056;8.510;2022-10-28T04:51:03;13.70;99.90
26278;DHT22;14000;52.056;8.510;2022-10-28T04:53:28;13.70;99.90
26278;DHT22;14000;52.056;8.510;2022-10-28T04:55:57;13.70;99.90
26278;DHT22;14000;52.056;8.510;2022-10-28T04:58:24;13.90;99.90
26278;DHT22;14000;52.056;8.510;2022-10-28T05:00:50;13.70;99.90
26278;DHT22;14000;52.056;8.510;2022-10-28T05:03:16;13.70;99.90
26278;DHT22;14000;52.056;8.510;2022-10-28T05:05:41;13.70;99.90
26278;DHT22;14000;52.056;8.510;2022-10-28T05:08:07;13.70;99.90
26278;DHT22;14000;52.056;8.510;2022-10-28T05:10:33;13.80;99.90
26278;DHT22;14000;52.056;8.510;2022-10-28T05:12:58;13.70;99.90
26278;DHT22;14000;52.056;8.510;2022-10-28T05:15:24;13.50;99.90
26278;DHT22;14000;52.056;8.510;2022-10-28T05:17:51;13.60;99.90
26278;DHT22;14000;52.056;8.510;2022-10-28T05:20:18;13.60;99.90
26278;DHT22;14000;52.056;8.510;2022-10-28T05:22:48;13.60;99.90
26278;DHT22;14000;52.056;8.510;2022-10-28T05:25:15;13.60;99.90
26278;DHT22;14000;52.056;8.510;2022-10-28T05:27:41;13.50;99.90
26278;DHT22;14000;52.056;8.510;2022-10-28T05:30:07;13.40;99.90
26278;DHT22;14000;52.056;8.510;2022-10-28T05:32:33;13.40;99.90
26278;DHT22;14000;52.056;8.510;2022-10-28T05:34:59;13.40;99.90
26278;DHT22;14000;52.056;8.510;2022-10-28T05:37:24;13.40;99.90
26278;DHT22;14000;52.056;8.510;2022-10-28T05:39:51;13.40;99.90
26278;DHT22;14000;52.056;8.510;2022-10-28T05:42:16;13.50;99.90
26278;DHT22;14000;52.056;8.510;2022-10-28T05:44:42;13.50;99.90
26278;DHT22;14000;52.056;8.510;2022-10-28T05:47:07;13.40;99.90
26278;DHT22;14000;52.056;8.510;2022-10-28T05:49:33;13.40;99.90
26278;DHT22;14000;52.056;8.510;2022-10-28T05:51:59;13.40;99.90
26278;DHT22;14000;52.056;8.510;2022-10-28T05:54:24;13.50;99.90
26278;DHT22;14000;52.056;8.510;2022-10-28T05:56:50;13.40;99.90
26278;DHT22;14000;52.056;8.510;2022-10-28T05:59:16;13.40;99.90
26278;DHT22;14000;52.056;8.510;2022-10-28T06:01:41;13.50;99.90
26278;DHT22;14000;52.056;8.510;2022-10-28T06:04:07;13.40;99.90
26278;DHT22;14000;52.056;8.510;2022-10-28T06:06:32;13.30;99.90
26278;DHT22;14000;52.056;8.510;2022-10-28T06:08:58;13.30;99.90
26278;DHT22;14000;52.056;8.510;2022-10-28T06:11:24;13.30;99.90
26278;DHT22;14000;52.056;8.510;2022-10-28T06:13:49;13.30;99.90
26278;DHT22;14000;52.056;8.510;2022-10-28T06:16:15;13.20;99.90
26278;DHT22;14000;52.056;8.510;2022-10-28T06:18:40;13.30;99.90
26278;DHT22;14000;52.056;8.510;2022-10-28T06:21:06;13.30;99.90
26278;DHT22;14000;52.056;8.510;2022-10-28T06:23:31;13.30;99.90
26278;DHT22;14000;52.056;8.510;2022-10-28T06:25:59;13.30;99.90
26278;DHT22;14000;52.056;8.510;2022-10-28T06:28:25;13.50;99.90
26278;DHT22;14000;52.056;8.510;2022-10-28T06:30:51;13.20;99.90
26278;DHT22;14000;52.056;8.510;2022-10-28T06:33:16;13.20;99.90
26278;DHT22;14000;52.056;8.510;2022-10-28T06:35:42;13.10;99.90
26278;DHT22;14000;52.056;8.510;2022-10-28T06:38:08;13.10;99.90
26278;DHT22;14000;52.056;8.510;2022-10-28T06:40:33;13.00;99.90
26278;DHT22;14000;52.056;8.510;2022-10-28T06:43:06;12.90;99.90
26278;DHT22;14000;52.056;8.510;2022-10-28T06:45:33;12.90;99.90
26278;DHT22;14000;52.056;8.510;2022-10-28T06:48:01;12.90;99.90
26278;DHT22;14000;52.056;8.510;2022-10-28T06:50:28;13.00;99.90
26278;DHT22;14000;52.056;8.510;2022-10-28T06:52:55;12.90;99.90
26278;DHT22;14000;52.056;8.510;2022-10-28T06:55:22;13.10;99.90
26278;DHT22;14000;52.056;8.510;2022-10-28T06:57:47;13.10;99.90
26278;DHT22;14000;52.056;8.510;2022-10-28T07:00:13;13.10;99.90
26278;DHT22;14000;52.056;8.510;2022-10-28T07:02:39;13.20;99.90
26278;DHT22;14000;52.056;8.510;2022-10-28T07:05:05;13.30;99.90
26278;DHT22;14000;52.056;8.510;2022-10-28T07:07:32;13.30;99.90
26278;DHT22;14000;52.056;8.510;2022-10-28T07:09:57;13.50;99.90
26278;DHT22;14000;52.056;8.510;2022-10-28T07:12:23;13.50;99.90
26278;DHT22;14000;52.056;8.510;2022-10-28T07:14:49;13.50;99.90
26278;DHT22;14000;52.056;8.510;2022-10-28T07:17:14;14.20;99.90
26278;DHT22;14000;52.056;8.510;2022-10-28T07:19:40;13.70;99.90
26278;DHT22;14000;52.056;8.510;2022-10-28T07:22:05;13.70;99.90
26278;DHT22;14000;52.056;8.510;2022-10-28T07:24:31;13.70;99.90
26278;DHT22;14000;52.056;8.510;2022-10-28T07:26:56;13.90;99.90
26278;DHT22;14000;52.056;8.510;2022-10-28T07:29:22;13.80;99.90
26278;DHT22;14000;52.056;8.510;2022-10-28T07:31:48;13.90;99.90
26278;DHT22;14000;52.056;8.510;2022-10-28T07:34:13;14.00;99.90
26278;DHT22;14000;52.056;8.510;2022-10-28T07:36:39;14.00;99.90
26278;DHT22;14000;52.056;8.510;2022-10-28T07:39:04;14.00;99.90
26278;DHT22;14000;52.056;8.510;2022-10-28T07:41:30;14.70;99.90
26278;DHT22;14000;52.056;8.510;2022-10-28T07:43:55;14.10;99.90
26278;DHT22;14000;52.056;8.510;2022-10-28T07:46:21;14.20;99.90
26278;DHT22;14000;52.056;8.510;2022-10-28T07:48:47;14.30;99.90
26278;DHT22;14000;52.056;8.510;2022-10-28T07:51:13;14.20;99.90
26278;DHT22;14000;52.056;8.510;2022-10-28T07:53:39;14.40;99.90
26278;DHT22;14000;52.056;8.510;2022-10-28T07:56:08;14.50;99.90
26278;DHT22;14000;52.056;8.510;2022-10-28T07:58:37;14.60;99.90
26278;DHT22;14000;52.056;8.510;2022-10-28T08:01:05;14.70;99.90
26278;DHT22;14000;52.056;8.510;2022-10-28T08:03:31;14.90;99.90
26278;DHT22;14000;52.056;8.510;2022-10-28T08:06:02;15.00;99.90
26278;DHT22;14000;52.056;8.510;2022-10-28T08:08:28;15.30;99.90
26278;DHT22;14000;52.056;8.510;2022-10-28T08:10:54;15.50;99.90
26278;DHT22;14000;52.056;8.510;2022-10-28T08:13:20;15.80;99.90
26278;DHT22;14000;52.056;8.510;2022-10-28T08:15:53;16.10;99.90
26278;DHT22;14000;52.056;8.510;2022-10-28T08:18:19;16.80;99.90
26278;DHT22;14000;52.056;8.510;2022-10-28T08:20:44;17.20;99.90
26278;DHT22;14000;52.056;8.510;2022-10-28T08:23:10;17.40;99.90
26278;DHT22;14000;52.056;8.510;2022-10-28T08:25:35;17.80;99.90
26278;DHT22;14000;52.056;8.510;2022-10-28T08:28:01;17.90;99.90
26278;DHT22;14000;52.056;8.510;2022-10-28T08:30:27;18.20;99.90
26278;DHT22;14000;52.056;8.510;2022-10-28T08:32:54;18.40;99.90
26278;DHT22;14000;52.056;8.510;2022-10-28T08:35:20;18.60;99.90
26278;DHT22;14000;52.056;8.510;2022-10-28T08:37:51;18.80;99.90
26278;DHT22;14000;52.056;8.510;2022-10-28T08:40:19;18.90;99.90
26278;DHT22;14000;52.056;8.510;2022-10-28T08:42:57;19.00;99.90
26278;DHT22;14000;52.056;8.510;2022-10-28T08:48:34;19.20;99.90
26278;DHT22;14000;52.056;8.510;2022-10-28T08:51:13;19.30;99.90
26278;DHT22;14000;52.056;8.510;2022-10-28T08:53:54;20.90;99.90
26278;DHT22;14000;52.056;8.510;2022-10-28T08:56:33;19.50;99.90
26278;DHT22;14000;52.056;8.510;2022-10-28T08:59:03;19.50;99.90
26278;DHT22;14000;52.056;8.510;2022-10-28T09:01:58;19.70;99.90
26278;DHT22;14000;52.056;8.510;2022-10-28T09:04:37;19.70;99.90
26278;DHT22;14000;52.056;8.510;2022-10-28T09:07:04;19.70;99.90
26278;DHT22;14000;52.056;8.510;2022-10-28T09:09:31;19.90;99.90
26278;DHT22;14000;52.056;8.510;2022-10-28T09:12:15;20.00;99.90
26278;DHT22;14000;52.056;8.510;2022-10-28T09:17:47;20.10;99.90
26278;DHT22;14000;52.056;8.510;2022-10-28T09:20:18;20.10;99.90
26278;DHT22;14000;52.056;8.510;2022-10-28T09:22:57;20.30;99.90
26278;DHT22;14000;52.056;8.510;2022-10-28T09:25:30;20.40;99.90
26278;DHT22;14000;52.056;8.510;2022-10-28T09:31:13;20.40;99.90
26278;DHT22;14000;52.056;8.510;2022-10-28T09:34:00;20.50;99.90
26278;DHT22;14000;52.056;8.510;2022-10-28T09:36:35;20.60;99.90
26278;DHT22;14000;52.056;8.510;2022-10-28T09:39:04;20.60;99.90
26278;DHT22;14000;52.056;8.510;2022-10-28T09:41:33;20.50;99.90
26278;DHT22;14000;52.056;8.510;2022-10-28T09:46:39;20.70;99.90
26278;DHT22;14000;52.056;8.510;2022-10-28T09:49:10;20.70;99.90
26278;DHT22;14000;52.056;8.510;2022-10-28T09:52:04;20.80;99.90
26278;DHT22;14000;52.056;8.510;2022-10-28T09:54:39;20.90;99.90
26278;DHT22;14000;52.056;8.510;2022-10-28T09:57:06;21.00;99.90
26278;DHT22;14000;52.056;8.510;2022-10-28T09:59:33;20.90;99.90
26278;DHT22;14000;52.056;8.510;2022-10-28T10:01:59;21.00;99.90
26278;DHT22;14000;52.056;8.510;2022-10-28T10:04:26;21.00;99.90
26278;DHT22;14000;52.056;8.510;2022-10-28T10:07:14;21.00;99.90
26278;DHT22;14000;52.056;8.510;2022-10-28T10:09:42;21.10;99.90
26278;DHT22;14000;52.056;8.510;2022-10-28T10:12:10;21.10;99.90
26278;DHT22;14000;52.056;8.510;2022-10-28T10:14:48;21.30;99.90
26278;DHT22;14000;52.056;8.510;2022-10-28T10:17:15;21.30;99.90
26278;DHT22;14000;52.056;8.510;2022-10-28T10:22:31;21.50;99.90
26278;DHT22;14000;52.056;8.510;2022-10-28T10:24:56;21.60;99.90
26278;DHT22;14000;52.056;8.510;2022-10-28T10:27:24;21.60;99.90
26278;DHT22;14000;52.056;8.510;2022-10-28T10:29:51;21.60;99.90
26278;DHT22;14000;52.056;8.510;2022-10-28T10:32:20;21.80;99.90
26278;DHT22;14000;52.056;8.510;2022-10-28T10:35:00;21.80;99.90
26278;DHT22;14000;52.056;8.510;2022-10-28T10:37:28;21.90;99.90
26278;DHT22;14000;52.056;8.510;2022-10-28T10:40:15;22.00;99.90
26278;DHT22;14000;52.056;8.510;2022-10-28T10:42:42;21.90;99.90
26278;DHT22;14000;52.056;8.510;2022-10-28T10:45:23;22.00;99.90
26278;DHT22;14000;52.056;8.510;2022-10-28T10:48:13;22.10;99.90
26278;DHT22;14000;52.056;8.510;2022-10-28T10:50:46;22.20;99.90
26278;DHT22;14000;52.056;8.510;2022-10-28T10:53:24;22.20;99.90
26278;DHT22;14000;52.056;8.510;2022-10-28T10:55:53;22.40;99.90
26278;DHT22;14000;52.056;8.510;2022-10-28T10:58:22;22.60;99.90
26278;DHT22;14000;52.056;8.510;2022-10-28T11:00:50;22.70;99.90
26278;DHT22;14000;52.056;8.510;2022-10-28T11:05:55;22.90;99.90
26278;DHT22;14000;52.056;8.510;2022-10-28T11:08:42;22.90;99.90
26278;DHT22;14000;52.056;8.510;2022-10-28T11:11:19;22.90;99.90
26278;DHT22;14000;52.056;8.510;2022-10-28T11:13:47;22.90;99.90
26278;DHT22;14000;52.056;8.510;2022-10-28T11:16:23;23.10;99.90
26278;DHT22;14000;52.056;8.510;2022-10-28T11:18:52;23.30;99.90
26278;DHT22;14000;52.056;8.510;2022-10-28T11:24:23;24.10;99.90
26278;DHT22;14000;52.056;8.510;2022-10-28T11:27:03;25.00;99.90
26278;DHT22;14000;52.056;8.510;2022-10-28T11:29:32;25.90;99.90
26278;DHT22;14000;52.056;8.510;2022-10-28T11:32:23;26.30;99.90
26278;DHT22;14000;52.056;8.510;2022-10-28T11:35:12;26.70;99.90
26278;DHT22;14000;52.056;8.510;2022-10-28T11:40:57;26.40;99.90
26278;DHT22;14000;52.056;8.510;2022-10-28T11:43:34;26.40;99.90
26278;DHT22;14000;52.056;8.510;2022-10-28T11:46:30;26.40;99.90
26278;DHT22;14000;52.056;8.510;2022-10-28T12:00:39;25.20;99.90
26278;DHT22;14000;52.056;8.510;2022-10-28T12:06:07;25.30;99.90
26278;DHT22;14000;52.056;8.510;2022-10-28T12:14:46;25.20;99.90
26278;DHT22;14000;52.056;8.510;2022-10-28T12:17:25;25.10;99.90
26278;DHT22;14000;52.056;8.510;2022-10-28T12:20:14;25.00;99.90
26278;DHT22;14000;52.056;8.510;2022-10-28T12:22:57;25.00;99.90
26278;DHT22;14000;52.056;8.510;2022-10-28T12:25:27;25.00;99.90
26278;DHT22;14000;52.056;8.510;2022-10-28T12:28:03;24.90;99.90
26278;DHT22;14000;52.056;8.510;2022-10-28T12:30:33;24.80;99.90
26278;DHT22;14000;52.056;8.510;2022-10-28T12:33:28;24.80;99.90
26278;DHT22;14000;52.056;8.510;2022-10-28T12:41:01;24.60;99.90
26278;DHT22;14000;52.056;8.510;2022-10-28T12:43:32;24.60;99.90
26278;DHT22;14000;52.056;8.510;2022-10-28T12:45:59;24.40;99.90
26278;DHT22;14000;52.056;8.510;2022-10-28T12:48:41;24.40;99.90
26278;DHT22;14000;52.056;8.510;2022-10-28T12:51:28;24.50;99.90
26278;DHT22;14000;52.056;8.510;2022-10-28T12:53:59;24.50;99.90
26278;DHT22;14000;52.056;8.510;2022-10-28T12:56:32;24.60;99.90
26278;DHT22;14000;52.056;8.510;2022-10-28T12:59:10;24.60;99.90
26278;DHT22;14000;52.056;8.510;2022-10-28T13:01:38;24.80;99.90
26278;DHT22;14000;52.056;8.510;2022-10-28T13:04:05;24.70;99.90
26278;DHT22;14000;52.056;8.510;2022-10-28T13:25:02;24.80;99.90
26278;DHT22;14000;52.056;8.510;2022-10-28T13:27:10;24.90;99.90
26278;DHT22;14000;52.056;8.510;2022-10-28T13:29:37;24.90;99.90
26278;DHT22;14000;52.056;8.510;2022-10-28T13:32:04;24.90;99.90
26278;DHT22;14000;52.056;8.510;2022-10-28T13:34:38;24.90;99.90
26278;DHT22;14000;52.056;8.510;2022-10-28T13:37:06;24.80;99.90
26278;DHT22;14000;52.056;8.510;2022-10-28T13:39:45;24.80;99.90
26278;DHT22;14000;52.056;8.510;2022-10-28T13:52:43;24.70;99.90
26278;DHT22;14000;52.056;8.510;2022-10-28T13:55:23;24.60;99.90
26278;DHT22;14000;52.056;8.510;2022-10-28T13:57:59;24.60;99.90
26278;DHT22;14000;52.056;8.510;2022-10-28T14:03:03;24.40;99.90
26278;DHT22;14000;52.056;8.510;2022-10-28T14:08:06;24.30;99.90
26278;DHT22;14000;52.056;8.510;2022-10-28T14:10:35;24.30;99.90
26278;DHT22;14000;52.056;8.510;2022-10-28T14:13:17;24.30;99.90
26278;DHT22;14000;52.056;8.510;2022-10-28T14:15:44;24.40;99.90
26278;DHT22;14000;52.056;8.510;2022-10-28T14:36:34;24.30;99.90
26278;DHT22;14000;52.056;8.510;2022-10-28T14:47:28;23.90;99.90
26278;DHT22;14000;52.056;8.510;2022-10-28T14:50:01;23.90;99.90
26278;DHT22;14000;52.056;8.510;2022-10-28T14:52:30;23.90;99.90
26278;DHT22;14000;52.056;8.510;2022-10-28T14:55:00;23.80;99.90
26278;DHT22;14000;52.056;8.510;2022-10-28T14:57:31;23.80;99.90
26278;DHT22;14000;52.056;8.510;2022-10-28T15:00:02;23.80;99.90
26278;DHT22;14000;52.056;8.510;2022-10-28T15:02:30;23.70;99.90
26278;DHT22;14000;52.056;8.510;2022-10-28T15:07:37;23.70;99.90
26278;DHT22;14000;52.056;8.510;2022-10-28T15:10:14;23.60;99.90
26278;DHT22;14000;52.056;8.510;2022-10-28T15:12:42;23.60;99.90
26278;DHT22;14000;52.056;8.510;2022-10-28T15:15:26;23.60;99.90
26278;DHT22;14000;52.056;8.510;2022-10-28T15:17:52;23.60;99.90
26278;DHT22;14000;52.056;8.510;2022-10-28T15:20:22;23.50;99.90
26278;DHT22;14000;52.056;8.510;2022-10-28T15:22:49;23.50;99.90
26278;DHT22;14000;52.056;8.510;2022-10-28T15:25:17;23.40;99.90
26278;DHT22;14000;52.056;8.510;2022-10-28T15:27:44;23.40;99.90
26278;DHT22;14000;52.056;8.510;2022-10-28T15:30:24;23.30;99.90
26278;DHT22;14000;52.056;8.510;2022-10-28T15:32:51;23.30;99.90
26278;DHT22;14000;52.056;8.510;2022-10-28T15:37:53;23.20;99.90
26278;DHT22;14000;52.056;8.510;2022-10-28T15:43:06;23.10;99.90
26278;DHT22;14000;52.056;8.510;2022-10-28T15:45:41;23.20;99.90
26278;DHT22;14000;52.056;8.510;2022-10-28T15:48:11;23.10;99.90
26278;DHT22;14000;52.056;8.510;2022-10-28T15:50:38;23.10;99.90
26278;DHT22;14000;52.056;8.510;2022-10-28T15:55:38;23.00;99.90
26278;DHT22;14000;52.056;8.510;2022-10-28T16:00:56;22.90;99.90
26278;DHT22;14000;52.056;8.510;2022-10-28T16:03:44;23.00;99.90
26278;DHT22;14000;52.056;8.510;2022-10-28T16:06:36;23.00;99.90
26278;DHT22;14000;52.056;8.510;2022-10-28T16:11:35;22.90;99.90
26278;DHT22;14000;52.056;8.510;2022-10-28T16:14:26;22.90;99.90
26278;DHT22;14000;52.056;8.510;2022-10-28T16:16:52;22.80;99.90
26278;DHT22;14000;52.056;8.510;2022-10-28T16:19:27;22.80;99.90
26278;DHT22;14000;52.056;8.510;2022-10-28T16:21:53;22.70;99.90
26278;DHT22;14000;52.056;8.510;2022-10-28T16:24:19;22.60;99.90
26278;DHT22;14000;52.056;8.510;2022-10-28T16:26:44;22.60;99.90
26278;DHT22;14000;52.056;8.510;2022-10-28T16:29:10;22.50;99.90
26278;DHT22;14000;52.056;8.510;2022-10-28T16:31:35;22.50;99.90
26278;DHT22;14000;52.056;8.510;2022-10-28T16:34:01;22.50;99.90
26278;DHT22;14000;52.056;8.510;2022-10-28T16:36:27;22.40;99.90
26278;DHT22;14000;52.056;8.510;2022-10-28T16:38:53;22.40;99.90
26278;DHT22;14000;52.056;8.510;2022-10-28T16:41:19;22.40;99.90
26278;DHT22;14000;52.056;8.510;2022-10-28T16:43:45;22.40;99.90
26278;DHT22;14000;52.056;8.510;2022-10-28T16:46:12;22.40;99.90
26278;DHT22;14000;52.056;8.510;2022-10-28T16:48:38;22.30;99.90
26278;DHT22;14000;52.056;8.510;2022-10-28T16:51:24;22.20;99.90
26278;DHT22;14000;52.056;8.510;2022-10-28T16:53:49;22.10;99.90
26278;DHT22;14000;52.056;8.510;2022-10-28T16:56:15;22.10;99.90
26278;DHT22;14000;52.056;8.510;2022-10-28T16:58:41;22.10;99.90
26278;DHT22;14000;52.056;8.510;2022-10-28T17:01:10;22.10;99.90
26278;DHT22;14000;52.056;8.510;2022-10-28T17:03:36;22.10;99.90
26278;DHT22;14000;52.056;8.510;2022-10-28T17:06:01;22.00;99.90
26278;DHT22;14000;52.056;8.510;2022-10-28T17:08:27;22.00;99.90
26278;DHT22;14000;52.056;8.510;2022-10-28T17:10:52;21.90;99.90
26278;DHT22;14000;52.056;8.510;2022-10-28T17:13:18;21.80;99.90
26278;DHT22;14000;52.056;8.510;2022-10-28T17:15:44;21.70;99.90
26278;DHT22;14000;52.056;8.510;2022-10-28T17:18:12;21.70;99.90
26278;DHT22;14000;52.056;8.510;2022-10-28T17:20:40;21.60;99.90
26278;DHT22;14000;52.056;8.510;2022-10-28T17:23:06;21.60;99.90
26278;DHT22;14000;52.056;8.510;2022-10-28T17:25:31;21.60;99.90
26278;DHT22;14000;52.056;8.510;2022-10-28T17:27:57;21.40;99.90
26278;DHT22;14000;52.056;8.510;2022-10-28T17:30:22;21.40;99.90
26278;DHT22;14000;52.056;8.510;2022-10-28T17:32:50;21.40;99.90
26278;DHT22;14000;52.056;8.510;2022-10-28T17:35:17;21.40;99.90
26278;DHT22;14000;52.056;8.510;2022-10-28T17:37:43;21.30;99.90
26278;DHT22;14000;52.056;8.510;2022-10-28T17:40:08;21.20;99.90
26278;DHT22;14000;52.056;8.510;2022-10-28T17:42:35;21.20;99.90
26278;DHT22;14000;52.056;8.510;2022-10-28T17:45:01;21.10;99.90
26278;DHT22;14000;52.056;8.510;2022-10-28T17:47:27;21.10;99.90
26278;DHT22;14000;52.056;8.510;2022-10-28T17:49:53;21.00;99.90
26278;DHT22;14000;52.056;8.510;2022-10-28T17:52:19;21.00;99.90
26278;DHT22;14000;52.056;8.510;2022-10-28T17:54:44;21.00;99.90
26278;DHT22;14000;52.056;8.510;2022-10-28T17:57:10;21.00;99.90
26278;DHT22;14000;52.056;8.510;2022-10-28T17:59:36;20.90;99.90
26278;DHT22;14000;52.056;8.510;2022-10-28T18:02:01;21.00;99.90
26278;DHT22;14000;52.056;8.510;2022-10-28T18:04:27;20.90;99.90
26278;DHT22;14000;52.056;8.510;2022-10-28T18:06:55;20.90;99.90
26278;DHT22;14000;52.056;8.510;2022-10-28T18:09:21;20.80;99.90
26278;DHT22;14000;52.056;8.510;2022-10-28T18:11:48;20.80;99.90
26278;DHT22;14000;52.056;8.510;2022-10-28T18:14:14;20.70;99.90
26278;DHT22;14000;52.056;8.510;2022-10-28T18:16:40;20.70;99.90
26278;DHT22;14000;52.056;8.510;2022-10-28T18:19:06;20.70;99.90